DRZA/AJY METAR and TAF weather

Enter ICAO airport designator
Station Type Date Time Source
DRZA METAR 2020/02/26 10:00 UTC NOAA

DRZA 261000Z 10023KT 4200 BLDU NSC 24/M03 Q1018


Station Type Date Time Source
DRZA Decoded METAR 2020/02/26 10:00 UTC NOAA

Agadez, Niger (DRZA) 16-58N 007-59E 502M
Feb 26, 2020 - 05:00 AM EST / 2020.02.26 1000 UTC
Wind: from the E (100 degrees) at 26 MPH (23 KT):0
Visibility: 2 mile(s):0
Weather: blowing widespread dust
Temperature: 75 F (24 C)
Dew Point: 26 F (-3 C)
Relative Humidity: 16%
Pressure (altimeter): 30.06 in. Hg (1018 hPa)
ob: DRZA 261000Z 10023KT 4200 BLDU NSC 24/M03 Q1018
cycle: 10

Station Type Date Time Source
DRZA TAF 2020/02/26 06:49 UTC NOAA

TAF COR DRZA 260500Z 2606/2706 10015KT 4000 DU NSC TDMPO 2608/2614 12030KT 2000
BECMG 2614/2616 6000 NSW

Example: see airport list